createdAt,value
2018-02-13T00:00:40.265Z,6.2
2018-02-13T00:01:42.635Z,6.2
2018-02-13T00:02:44.994Z,6.1
2018-02-13T00:03:47.355Z,6.1
2018-02-13T00:04:49.729Z,6.1
2018-02-13T00:05:52.151Z,6.1
2018-02-13T00:06:54.469Z,6.1
2018-02-13T00:07:56.828Z,6.1
2018-02-13T00:08:59.469Z,6.1
2018-02-13T00:10:01.845Z,6.1
2018-02-13T00:11:04.202Z,6.1
2018-02-13T00:12:06.574Z,6.1
2018-02-13T00:13:08.939Z,6.1
2018-02-13T00:14:11.587Z,6.1
2018-02-13T00:15:13.943Z,6.1
2018-02-13T00:16:16.318Z,6
2018-02-13T00:17:18.968Z,6.1
2018-02-13T00:18:21.344Z,6
2018-02-13T00:19:23.715Z,6
2018-02-13T00:20:26.362Z,6
2018-02-13T00:21:29.013Z,6
2018-02-13T00:22:31.673Z,6
2018-02-13T00:23:34.029Z,5.9
2018-02-13T00:24:36.406Z,6
2018-02-13T00:25:38.766Z,5.9
2018-02-13T00:26:41.413Z,6
2018-02-13T00:27:43.784Z,6
2018-02-13T00:28:46.153Z,5.9
2018-02-13T00:29:48.502Z,5.9
2018-02-13T00:30:50.881Z,5.9
2018-02-13T00:31:53.238Z,5.9
2018-02-13T00:32:55.675Z,5.9
2018-02-13T00:33:57.983Z,5.9
2018-02-13T00:35:00.353Z,5.9
2018-02-13T00:36:02.727Z,5.9
2018-02-13T00:37:05.102Z,5.9
2018-02-13T00:38:07.466Z,5.9
2018-02-13T00:39:09.827Z,5.9
2018-02-13T00:40:12.186Z,5.9
2018-02-13T00:41:14.838Z,5.9
2018-02-13T00:42:17.204Z,5.9
2018-02-13T00:43:19.561Z,5.9
2018-02-13T00:44:21.927Z,5.9
2018-02-13T00:45:24.333Z,5.9
2018-02-13T00:46:26.662Z,5.8
2018-02-13T00:47:29.037Z,5.9
2018-02-13T00:48:31.398Z,5.8
2018-02-13T00:49:34.049Z,5.8
2018-02-13T00:50:36.425Z,5.8
2018-02-13T00:51:38.796Z,5.9
2018-02-13T00:52:41.155Z,5.9
2018-02-13T00:53:43.520Z,5.9
2018-02-13T00:54:45.880Z,5.8
2018-02-13T00:55:48.252Z,5.8
2018-02-13T00:56:50.623Z,5.8
2018-02-13T00:57:52.982Z,5.8
2018-02-13T00:58:55.356Z,5.8
2018-02-13T00:59:57.746Z,5.8
2018-02-13T01:01:00.119Z,5.8
2018-02-13T01:02:02.776Z,5.7
2018-02-13T01:03:05.134Z,5.7
2018-02-13T01:04:07.781Z,5.7
2018-02-13T01:05:10.158Z,5.7
2018-02-13T01:06:12.527Z,5.7
2018-02-13T01:07:14.892Z,5.7
2018-02-13T01:08:17.250Z,5.7
2018-02-13T01:09:19.623Z,5.7
2018-02-13T01:10:21.985Z,5.7
2018-02-13T01:11:24.355Z,5.7
2018-02-13T01:12:26.729Z,5.7
2018-02-13T01:13:29.095Z,5.7
2018-02-13T01:14:31.454Z,5.7
2018-02-13T01:15:33.830Z,5.7
2018-02-13T01:16:36.182Z,5.7
2018-02-13T01:17:38.555Z,5.7
2018-02-13T01:18:40.919Z,5.7
2018-02-13T01:19:43.289Z,5.7
2018-02-13T01:20:45.964Z,5.7
2018-02-13T01:21:48.337Z,5.7
2018-02-13T01:22:50.693Z,5.7
2018-02-13T01:23:53.069Z,5.7
2018-02-13T01:24:55.714Z,5.7
2018-02-13T01:25:58.089Z,5.7
2018-02-13T01:27:00.471Z,5.7
2018-02-13T01:28:02.832Z,5.7
2018-02-13T01:29:05.199Z,5.7
2018-02-13T01:30:07.863Z,5.7
2018-02-13T01:31:10.511Z,5.7
2018-02-13T01:32:13.159Z,5.7
2018-02-13T01:33:15.823Z,5.7
2018-02-13T01:34:18.188Z,5.7
2018-02-13T01:35:20.830Z,5.6
2018-02-13T01:36:23.198Z,5.6
2018-02-13T01:37:25.572Z,5.6
2018-02-13T01:38:28.209Z,5.6
2018-02-13T01:39:30.860Z,5.6
2018-02-13T01:40:33.233Z,5.5
2018-02-13T01:41:35.876Z,5.5
2018-02-13T01:42:38.236Z,5.5
2018-02-13T01:43:40.882Z,5.5
2018-02-13T01:44:43.252Z,5.5
2018-02-13T01:45:45.626Z,5.5
2018-02-13T01:46:47.995Z,5.5
2018-02-13T01:47:50.355Z,5.5
2018-02-13T01:48:52.828Z,5.5
2018-02-13T01:49:55.475Z,5.5
2018-02-13T01:50:58.417Z,5.5
2018-02-13T01:52:00.786Z,5.5
2018-02-13T01:53:03.710Z,5.4
2018-02-13T01:54:06.072Z,5.4
2018-02-13T01:55:08.731Z,5.4
2018-02-13T01:56:11.097Z,5.4
2018-02-13T01:57:13.760Z,5.4
2018-02-13T01:58:16.126Z,5.4
2018-02-13T01:59:18.490Z,5.4
2018-02-13T02:00:21.145Z,5.4
2018-02-13T02:01:23.515Z,5.4
2018-02-13T02:02:25.884Z,5.4
2018-02-13T02:03:28.251Z,5.3
2018-02-13T02:04:30.616Z,5.3
2018-02-13T02:05:32.990Z,5.3
2018-02-13T02:06:35.358Z,5.3
2018-02-13T02:07:37.754Z,5.3
2018-02-13T02:08:40.096Z,5.3
2018-02-13T02:09:42.465Z,5.3
2018-02-13T02:10:44.831Z,5.3
2018-02-13T02:11:47.206Z,5.2
2018-02-13T02:12:49.573Z,5.2
2018-02-13T02:13:51.943Z,5.2
2018-02-13T02:14:54.316Z,5.2
2018-02-13T02:15:56.962Z,5.2
2018-02-13T02:16:59.604Z,5.2
2018-02-13T02:18:01.971Z,5.2
2018-02-13T02:19:04.334Z,5.2
2018-02-13T02:20:06.703Z,5.2
2018-02-13T02:21:09.080Z,5.2
2018-02-13T02:22:11.439Z,5.2
2018-02-13T02:23:14.092Z,5.2
2018-02-13T02:24:16.461Z,5.2
2018-02-13T02:25:18.828Z,5.2
2018-02-13T02:26:21.482Z,5.2
2018-02-13T02:27:23.853Z,5.2
2018-02-13T02:28:26.209Z,5.2
2018-02-13T02:29:28.878Z,5.2
2018-02-13T02:30:31.230Z,5.2
2018-02-13T02:31:33.592Z,5.2
2018-02-13T02:32:35.964Z,5.2
2018-02-13T02:33:38.612Z,5.2
2018-02-13T02:34:40.979Z,5.2
2018-02-13T02:35:43.355Z,5.2
2018-02-13T02:36:45.716Z,5.2
2018-02-13T02:37:48.365Z,5.2
2018-02-13T02:38:50.728Z,5.2
2018-02-13T02:39:53.382Z,5.2
2018-02-13T02:40:55.751Z,5.2
2018-02-13T02:41:58.123Z,5.1
2018-02-13T02:43:00.492Z,5.2
2018-02-13T02:44:03.127Z,5.2
2018-02-13T02:45:05.495Z,5.2
2018-02-13T02:46:07.866Z,5.2
2018-02-13T02:47:10.218Z,5.2
2018-02-13T02:48:12.583Z,5.2
2018-02-13T02:49:15.237Z,5.2
2018-02-13T02:50:17.605Z,5.2
2018-02-13T02:51:19.969Z,5.2
2018-02-13T02:52:22.335Z,5.1
2018-02-13T02:53:24.695Z,5.1
2018-02-13T02:54:27.070Z,5.1
2018-02-13T02:55:29.439Z,5.1
2018-02-13T02:56:31.809Z,5.1
2018-02-13T02:57:34.176Z,5
2018-02-13T02:58:36.536Z,5
2018-02-13T02:59:38.899Z,5
2018-02-13T03:00:41.272Z,5
2018-02-13T03:01:43.945Z,5
2018-02-13T03:02:46.559Z,4.9
2018-02-13T03:03:48.932Z,4.9
2018-02-13T03:04:51.301Z,4.9
2018-02-13T03:05:53.661Z,4.9
2018-02-13T03:06:56.312Z,4.9
2018-02-13T03:07:58.676Z,4.9
2018-02-13T03:09:01.048Z,4.9
2018-02-13T03:10:03.690Z,4.9
2018-02-13T03:11:06.058Z,4.9
2018-02-13T03:12:08.420Z,4.9
2018-02-13T03:13:11.076Z,4.9
2018-02-13T03:14:13.443Z,4.9
2018-02-13T03:15:16.093Z,4.9
2018-02-13T03:16:18.737Z,4.9
2018-02-13T03:17:21.111Z,4.9
2018-02-13T03:18:23.475Z,4.9
2018-02-13T03:19:25.845Z,4.9
2018-02-13T03:20:28.205Z,4.9
2018-02-13T03:21:30.877Z,4.9
2018-02-13T03:22:33.238Z,4.9
2018-02-13T03:23:35.610Z,4.8
2018-02-13T03:24:37.972Z,4.8
2018-02-13T03:25:40.345Z,4.8
2018-02-13T03:26:42.706Z,4.8
2018-02-13T03:27:45.078Z,4.8
2018-02-13T03:28:47.441Z,4.8
2018-02-13T03:29:49.808Z,4.8
2018-02-13T03:30:52.466Z,4.8
2018-02-13T03:31:54.831Z,4.8
2018-02-13T03:32:57.197Z,4.8
2018-02-13T03:33:59.569Z,4.8
2018-02-13T03:35:01.933Z,4.8
2018-02-13T03:36:04.299Z,4.8
2018-02-13T03:37:06.680Z,4.7
2018-02-13T03:38:09.050Z,4.8
2018-02-13T03:39:11.409Z,4.8
2018-02-13T03:40:13.770Z,4.8
2018-02-13T03:41:16.422Z,4.8
2018-02-13T03:42:18.788Z,4.8
2018-02-13T03:43:21.158Z,4.8
2018-02-13T03:44:23.516Z,4.8
2018-02-13T03:45:25.884Z,4.8
2018-02-13T03:46:28.261Z,4.8
2018-02-13T03:47:30.620Z,4.8
2018-02-13T03:48:33.260Z,4.8
2018-02-13T03:49:35.623Z,4.8
2018-02-13T03:50:37.990Z,4.8
2018-02-13T03:51:40.372Z,4.8
2018-02-13T03:52:42.738Z,4.8
2018-02-13T03:53:45.096Z,4.8
2018-02-13T03:54:47.757Z,4.8
2018-02-13T03:55:50.126Z,4.8
2018-02-13T03:56:52.486Z,4.8
2018-02-13T03:57:55.419Z,4.8
2018-02-13T03:58:58.051Z,4.8
2018-02-13T04:00:00.702Z,4.8
2018-02-13T04:01:03.076Z,4.8
2018-02-13T04:02:05.440Z,4.8
2018-02-13T04:03:07.805Z,4.8
2018-02-13T04:04:10.176Z,4.8
2018-02-13T04:05:13.107Z,4.8
2018-02-13T04:06:15.471Z,4.7
2018-02-13T04:07:17.837Z,4.7
2018-02-13T04:08:20.216Z,4.7
2018-02-13T04:09:22.583Z,4.7
2018-02-13T04:10:24.941Z,4.7
2018-02-13T04:11:27.309Z,4.7
2018-02-13T04:12:29.684Z,4.7
2018-02-13T04:13:32.057Z,4.7
2018-02-13T04:14:34.426Z,4.7
2018-02-13T04:15:36.781Z,4.7
2018-02-13T04:16:39.428Z,4.7
2018-02-13T04:17:42.084Z,4.7
2018-02-13T04:18:44.456Z,4.6
2018-02-13T04:19:46.810Z,4.6
2018-02-13T04:20:49.179Z,4.6
2018-02-13T04:21:51.543Z,4.6
2018-02-13T04:22:54.204Z,4.6
2018-02-13T04:23:57.127Z,4.6
2018-02-13T04:24:59.482Z,4.6
2018-02-13T04:26:02.134Z,4.6
2018-02-13T04:27:04.506Z,4.6
2018-02-13T04:28:06.867Z,4.6
2018-02-13T04:29:09.227Z,4.6
2018-02-13T04:30:11.598Z,4.6
2018-02-13T04:31:13.961Z,4.6
2018-02-13T04:32:16.342Z,4.6
2018-02-13T04:33:18.711Z,4.7
2018-02-13T04:34:21.067Z,4.6
2018-02-13T04:35:23.432Z,4.6
2018-02-13T04:36:25.808Z,4.6
2018-02-13T04:37:28.176Z,4.6
2018-02-13T04:38:30.539Z,4.6
2018-02-13T04:39:33.185Z,4.5
2018-02-13T04:40:35.550Z,4.5
2018-02-13T04:41:38.186Z,4.5
2018-02-13T04:42:40.562Z,4.5
2018-02-13T04:43:42.915Z,4.5
2018-02-13T04:44:45.282Z,4.5
2018-02-13T04:45:47.652Z,4.5
2018-02-13T04:46:50.012Z,4.4
2018-02-13T04:47:52.660Z,4.4
2018-02-13T04:48:55.081Z,4.4
2018-02-13T04:49:57.438Z,4.4
2018-02-13T04:50:59.812Z,4.4
2018-02-13T04:52:02.455Z,4.4
2018-02-13T04:53:04.818Z,4.4
2018-02-13T04:54:07.464Z,4.4
2018-02-13T04:55:10.104Z,4.4
2018-02-13T04:56:12.459Z,4.4
2018-02-13T04:57:14.834Z,4.4
2018-02-13T04:58:17.190Z,4.4
2018-02-13T04:59:19.562Z,4.4
2018-02-13T05:00:21.936Z,4.4
2018-02-13T05:01:24.298Z,4.4
2018-02-13T05:02:26.949Z,4.4
2018-02-13T05:03:29.320Z,4.4
2018-02-13T05:04:31.679Z,4.4
2018-02-13T05:05:34.037Z,4.4
2018-02-13T05:06:36.693Z,4.4
2018-02-13T05:07:39.068Z,4.4
2018-02-13T05:08:41.433Z,4.4
2018-02-13T05:09:43.797Z,4.4
2018-02-13T05:10:46.166Z,4.4
2018-02-13T05:11:48.808Z,4.4
2018-02-13T05:12:51.220Z,4.4
2018-02-13T05:13:53.547Z,4.4
2018-02-13T05:14:55.901Z,4.4
2018-02-13T05:15:58.267Z,4.3
2018-02-13T05:17:00.919Z,4.3
2018-02-13T05:18:03.285Z,4.3
2018-02-13T05:19:05.925Z,4.3
2018-02-13T05:20:08.285Z,4.3
2018-02-13T05:21:10.650Z,4.3
2018-02-13T05:22:13.028Z,4.4
2018-02-13T05:23:15.389Z,4.4
2018-02-13T05:24:17.741Z,4.4
2018-02-13T05:25:20.108Z,4.4
2018-02-13T05:26:22.486Z,4.4
2018-02-13T05:27:24.855Z,4.4
2018-02-13T05:28:27.217Z,4.4
2018-02-13T05:29:29.576Z,4.4
2018-02-13T05:30:32.222Z,4.4
2018-02-13T05:31:34.597Z,4.4
2018-02-13T05:32:36.961Z,4.4
2018-02-13T05:33:39.309Z,4.4
2018-02-13T05:34:41.671Z,4.4
2018-02-13T05:35:44.034Z,4.4
2018-02-13T05:36:46.399Z,4.4
2018-02-13T05:37:48.760Z,4.4
2018-02-13T05:38:51.142Z,4.4
2018-02-13T05:39:53.788Z,4.5
2018-02-13T05:40:56.142Z,4.5
2018-02-13T05:41:58.516Z,4.4
2018-02-13T05:43:00.882Z,4.4
2018-02-13T05:44:03.527Z,4.4
2018-02-13T05:45:05.892Z,4.4
2018-02-13T05:46:08.527Z,4.4
2018-02-13T05:47:10.889Z,4.4
2018-02-13T05:48:13.266Z,4.4
2018-02-13T05:49:15.902Z,4.4
2018-02-13T05:50:18.275Z,4.4
2018-02-13T05:51:20.634Z,4.4
2018-02-13T05:52:22.992Z,4.4
2018-02-13T05:53:25.644Z,4.4
2018-02-13T05:54:28.013Z,4.4
2018-02-13T05:55:30.372Z,4.4
2018-02-13T05:56:32.752Z,4.4
2018-02-13T05:57:35.383Z,4.4
2018-02-13T05:58:38.338Z,4.4
2018-02-13T05:59:40.699Z,4.4
2018-02-13T06:00:43.073Z,4.5
2018-02-13T06:01:45.440Z,4.5
2018-02-13T06:02:47.805Z,4.5
2018-02-13T06:03:50.210Z,4.5
2018-02-13T06:04:52.527Z,4.5
2018-02-13T06:05:54.892Z,4.5
2018-02-13T06:06:57.317Z,4.5
2018-02-13T06:07:59.631Z,4.4
2018-02-13T06:09:02.630Z,4.4
2018-02-13T06:10:05.279Z,4.4
2018-02-13T06:11:07.630Z,4.4
2018-02-13T06:12:09.999Z,4.4
2018-02-13T06:13:12.363Z,4.4
2018-02-13T06:14:14.719Z,4.4
2018-02-13T06:15:17.087Z,4.4
2018-02-13T06:16:19.455Z,4.4
2018-02-13T06:17:21.818Z,4.4
2018-02-13T06:18:24.188Z,4.4
2018-02-13T06:19:27.110Z,4.4
2018-02-13T06:20:29.477Z,4.4
2018-02-13T06:21:31.854Z,4.3
2018-02-13T06:22:34.214Z,4.4
2018-02-13T06:23:36.585Z,4.4
2018-02-13T06:24:39.222Z,4.3
2018-02-13T06:25:41.602Z,4.3
2018-02-13T06:26:43.961Z,4.3
2018-02-13T06:27:46.326Z,4.3
2018-02-13T06:28:48.983Z,4.3
2018-02-13T06:29:51.363Z,4.3
2018-02-13T06:30:53.717Z,4.3
2018-02-13T06:31:56.376Z,4.3
2018-02-13T06:32:59.005Z,4.3
2018-02-13T06:34:01.371Z,4.3
2018-02-13T06:35:03.733Z,4.3
2018-02-13T06:36:06.366Z,4.3
2018-02-13T06:37:09.016Z,4.3
2018-02-13T06:38:11.387Z,4.3
2018-02-13T06:39:13.753Z,4.3
2018-02-13T06:40:16.113Z,4.3
2018-02-13T06:41:18.756Z,4.3
2018-02-13T06:42:21.118Z,4.3
2018-02-13T06:43:23.490Z,4.3
2018-02-13T06:44:25.856Z,4.3
2018-02-13T06:45:28.217Z,4.3
2018-02-13T06:46:30.588Z,4.3
2018-02-13T06:47:32.951Z,4.4
2018-02-13T06:48:35.318Z,4.3
2018-02-13T06:49:37.696Z,4.3
2018-02-13T06:50:40.069Z,4.4
2018-02-13T06:51:42.427Z,4.4
2018-02-13T06:52:44.791Z,4.4
2018-02-13T06:53:47.153Z,4.3
2018-02-13T06:54:49.518Z,4.4
2018-02-13T06:55:51.888Z,4.4
2018-02-13T06:56:54.537Z,4.4
2018-02-13T06:57:56.903Z,4.4
2018-02-13T06:58:59.270Z,4.4
2018-02-13T07:00:01.643Z,4.4
2018-02-13T07:01:04.009Z,4.4
2018-02-13T07:02:06.379Z,4.4
2018-02-13T07:03:09.030Z,4.4
2018-02-13T07:04:11.405Z,4.4
2018-02-13T07:05:13.767Z,4.5
2018-02-13T07:06:16.429Z,4.5
2018-02-13T07:07:18.792Z,4.5
2018-02-13T07:08:21.156Z,4.5
2018-02-13T07:09:23.512Z,4.6
2018-02-13T07:10:26.172Z,4.6
2018-02-13T07:11:28.530Z,4.6
2018-02-13T07:12:30.903Z,4.6
2018-02-13T07:13:33.550Z,4.6
2018-02-13T07:14:35.919Z,4.6
2018-02-13T07:15:38.287Z,4.6
2018-02-13T07:16:40.689Z,4.6
2018-02-13T07:17:43.020Z,4.7
2018-02-13T07:18:45.390Z,4.7
2018-02-13T07:19:48.026Z,4.7
2018-02-13T07:20:50.668Z,4.7
2018-02-13T07:21:53.030Z,4.7
2018-02-13T07:22:55.703Z,4.8
2018-02-13T07:23:58.348Z,4.8
2018-02-13T07:25:00.999Z,4.8
2018-02-13T07:26:03.647Z,4.8
2018-02-13T07:27:06.020Z,4.9
2018-02-13T07:28:08.390Z,4.9
2018-02-13T07:29:10.764Z,4.9
2018-02-13T07:30:13.125Z,4.9
2018-02-13T07:31:15.489Z,4.9
2018-02-13T07:32:17.858Z,5
2018-02-13T07:33:20.220Z,5
2018-02-13T07:34:22.579Z,5
2018-02-13T07:35:24.951Z,5
2018-02-13T07:36:27.322Z,5.1
2018-02-13T07:37:29.678Z,5.1
2018-02-13T07:38:32.041Z,5.1
2018-02-13T07:39:34.690Z,5.1
2018-02-13T07:40:37.056Z,5.2
2018-02-13T07:41:39.429Z,5.2
2018-02-13T07:42:42.072Z,5.3
2018-02-13T07:43:44.431Z,5.4
2018-02-13T07:44:46.808Z,5.4
2018-02-13T07:45:49.176Z,5.5
2018-02-13T07:46:51.541Z,5.5
2018-02-13T07:47:53.911Z,5.6
2018-02-13T07:48:56.584Z,5.6
2018-02-13T07:49:59.227Z,5.7
2018-02-13T07:51:01.882Z,5.8
2018-02-13T07:52:04.235Z,5.8
2018-02-13T07:53:06.602Z,5.9
2018-02-13T07:54:08.980Z,6
2018-02-13T07:55:11.347Z,6.1
2018-02-13T07:56:13.999Z,6.2
2018-02-13T07:57:16.366Z,6.3
2018-02-13T07:58:18.733Z,6.4
2018-02-13T07:59:21.104Z,6.5
2018-02-13T08:00:23.470Z,6.6
2018-02-13T08:01:25.829Z,6.7
2018-02-13T08:02:28.201Z,6.8
2018-02-13T08:03:30.573Z,6.9
2018-02-13T08:04:32.941Z,7
2018-02-13T08:05:35.590Z,7.1
2018-02-13T08:06:37.968Z,7.2
2018-02-13T08:07:40.337Z,7.3
2018-02-13T08:08:42.712Z,7.4
2018-02-13T08:09:45.372Z,7.5
2018-02-13T08:10:47.733Z,7.6
2018-02-13T08:11:50.105Z,7.7
2018-02-13T08:12:52.750Z,7.7
2018-02-13T08:13:55.405Z,7.8
2018-02-13T08:14:58.152Z,7.9
2018-02-13T08:16:00.474Z,7.9
2018-02-13T08:17:02.841Z,8
2018-02-13T08:18:05.222Z,8
2018-02-13T08:19:08.014Z,8.1
2018-02-13T08:20:10.650Z,8.1
2018-02-13T08:21:13.021Z,8.2
2018-02-13T08:22:15.391Z,8.3
2018-02-13T08:23:17.767Z,8.3
2018-02-13T08:24:20.424Z,8.4
2018-02-13T08:25:22.788Z,8.5
2018-02-13T08:26:25.156Z,8.6
2018-02-13T08:27:27.539Z,8.6
2018-02-13T08:28:29.912Z,8.7
2018-02-13T08:29:32.282Z,8.9
2018-02-13T08:30:34.653Z,9
2018-02-13T08:31:37.032Z,9.1
2018-02-13T08:32:39.675Z,9.2
2018-02-13T08:33:42.051Z,9.3
2018-02-13T08:34:44.433Z,9.4
2018-02-13T08:35:46.800Z,9.5
2018-02-13T08:36:49.177Z,9.6
2018-02-13T08:37:51.556Z,9.7
2018-02-13T08:38:53.935Z,9.9
2018-02-13T08:39:56.313Z,9.9
2018-02-13T08:40:58.684Z,10
2018-02-13T08:42:01.049Z,10.1
2018-02-13T08:43:03.425Z,10.1
2018-02-13T08:44:06.078Z,10.1
2018-02-13T08:45:08.442Z,10.2
2018-02-13T08:46:10.816Z,10.2
2018-02-13T08:47:13.191Z,10.3
2018-02-13T08:48:15.565Z,10.4
2018-02-13T08:49:17.947Z,10.5
2018-02-13T08:50:20.609Z,10.5
2018-02-13T08:51:23.542Z,10.6
2018-02-13T08:52:25.909Z,10.7
2018-02-13T08:53:28.298Z,10.9
2018-02-13T08:54:30.660Z,10.9
2018-02-13T08:55:33.040Z,11.1
2018-02-13T08:56:35.413Z,11.2
2018-02-13T08:57:37.789Z,11.2
2018-02-13T08:58:40.163Z,11.3
2018-02-13T08:59:42.827Z,11.4
2018-02-13T09:00:45.194Z,11.5
2018-02-13T09:01:47.581Z,11.5
2018-02-13T09:02:49.944Z,11.6
2018-02-13T09:03:52.323Z,11.7
2018-02-13T09:04:54.701Z,11.7
2018-02-13T09:05:57.373Z,11.8
2018-02-13T09:07:00.027Z,11.7
2018-02-13T09:08:02.695Z,11.8
2018-02-13T09:09:05.060Z,11.8
2018-02-13T09:10:07.444Z,11.9
2018-02-13T09:11:10.108Z,11.9
2018-02-13T09:12:12.761Z,12.1
2018-02-13T09:13:15.142Z,12.1
2018-02-13T09:14:17.520Z,12.2
2018-02-13T09:15:20.169Z,12.2
2018-02-13T09:16:22.558Z,12.3
2018-02-13T09:17:24.927Z,12.3
2018-02-13T09:18:27.311Z,12.4
2018-02-13T09:19:29.691Z,12.4
2018-02-13T09:20:32.070Z,12.4
2018-02-13T09:21:34.449Z,12.4
2018-02-13T09:22:36.838Z,12.4
2018-02-13T09:23:39.204Z,12.4
2018-02-13T09:24:41.585Z,12.5
2018-02-13T09:25:43.959Z,12.6
2018-02-13T09:26:46.894Z,12.7
2018-02-13T09:27:49.267Z,12.8
2018-02-13T09:28:51.640Z,12.8
2018-02-13T09:29:54.015Z,12.9
2018-02-13T09:30:56.395Z,13
2018-02-13T09:31:58.778Z,13.1
2018-02-13T09:33:01.157Z,13.1
2018-02-13T09:34:03.806Z,13.2
2018-02-13T09:35:06.182Z,13.3
2018-02-13T09:36:08.574Z,13.3
2018-02-13T09:37:11.232Z,13.5
2018-02-13T09:38:13.610Z,13.6
2018-02-13T09:39:15.989Z,13.7
2018-02-13T09:40:18.373Z,13.8
2018-02-13T09:41:20.759Z,13.9
2018-02-13T09:42:23.134Z,14
2018-02-13T09:43:25.512Z,14.1
2018-02-13T09:44:27.896Z,14.2
2018-02-13T09:45:30.278Z,14.3
2018-02-13T09:46:32.665Z,14.4
2018-02-13T09:47:35.054Z,14.5
2018-02-13T09:48:37.426Z,14.6
2018-02-13T09:49:39.802Z,14.7
2018-02-13T09:50:42.194Z,14.7
2018-02-13T09:51:44.578Z,14.7
2018-02-13T09:52:46.956Z,14.8
2018-02-13T09:53:49.338Z,14.8
2018-02-13T09:54:51.715Z,14.8
2018-02-13T09:55:54.104Z,14.8
2018-02-13T09:56:56.763Z,14.8
2018-02-13T09:57:59.416Z,14.8
2018-02-13T09:59:01.796Z,14.8
2018-02-13T10:00:04.183Z,14.8
2018-02-13T10:01:06.566Z,14.9
2018-02-13T10:02:08.938Z,14.9
2018-02-13T10:03:11.323Z,15
2018-02-13T10:04:13.705Z,15.1
2018-02-13T10:05:16.082Z,15.2
2018-02-13T10:06:18.465Z,15.2
2018-02-13T10:07:21.126Z,15.4
2018-02-13T10:08:23.801Z,15.4
2018-02-13T10:09:26.174Z,15.5
2018-02-13T10:10:28.839Z,15.6
2018-02-13T10:11:31.219Z,15.6
2018-02-13T10:12:33.602Z,15.7
2018-02-13T10:13:35.981Z,15.7
2018-02-13T10:14:38.359Z,15.8
2018-02-13T10:15:40.743Z,15.7
2018-02-13T10:16:43.120Z,15.8
2018-02-13T10:17:45.818Z,15.7
2018-02-13T10:18:48.222Z,15.8
2018-02-13T10:19:50.596Z,15.8
2018-02-13T10:20:52.987Z,15.8
2018-02-13T10:21:55.359Z,15.8
2018-02-13T10:22:57.735Z,15.9
2018-02-13T10:24:00.126Z,15.9
2018-02-13T10:25:02.508Z,15.9
2018-02-13T10:26:05.185Z,16
2018-02-13T10:27:07.570Z,16.1
2018-02-13T10:28:10.220Z,16.1
2018-02-13T10:29:12.600Z,16.2
2018-02-13T10:30:14.982Z,16.4
2018-02-13T10:31:17.373Z,16.4
2018-02-13T10:32:19.754Z,16.6
2018-02-13T10:33:22.402Z,16.7
2018-02-13T10:34:24.788Z,16.8
2018-02-13T10:35:27.165Z,16.9
2018-02-13T10:36:29.551Z,17
2018-02-13T10:37:31.929Z,17
2018-02-13T10:38:34.344Z,17
2018-02-13T10:39:36.689Z,17
2018-02-13T10:40:39.364Z,17
2018-02-13T10:41:41.742Z,17
2018-02-13T10:42:44.124Z,17.1
2018-02-13T10:43:46.504Z,17.1
2018-02-13T10:44:48.887Z,17.1
2018-02-13T10:45:51.564Z,17.2
2018-02-13T10:46:53.946Z,17.2
2018-02-13T10:47:56.326Z,17.1
2018-02-13T10:48:58.988Z,17.1
2018-02-13T10:50:01.369Z,17.1
2018-02-13T10:51:03.757Z,17.1
2018-02-13T10:52:06.131Z,17.2
2018-02-13T10:53:08.795Z,17.1
2018-02-13T10:54:11.176Z,17.1
2018-02-13T10:55:13.859Z,17.1
2018-02-13T10:56:16.519Z,17.2
2018-02-13T10:57:19.202Z,17.3
2018-02-13T10:58:21.586Z,17.4
2018-02-13T10:59:23.967Z,17.5
2018-02-13T11:00:26.349Z,17.6
2018-02-13T11:01:28.732Z,17.6
2018-02-13T11:02:31.113Z,17.7
2018-02-13T11:03:33.497Z,17.8
2018-02-13T11:04:35.892Z,17.8
2018-02-13T11:05:38.281Z,17.9
2018-02-13T11:06:40.656Z,17.9
2018-02-13T11:07:43.071Z,17.9
2018-02-13T11:08:45.436Z,17.9
2018-02-13T11:09:47.814Z,18
2018-02-13T11:10:50.198Z,18.2
2018-02-13T11:11:52.584Z,18.3
2018-02-13T11:12:54.966Z,18.4
2018-02-13T11:13:57.358Z,18.4
2018-02-13T11:14:59.730Z,18.4
2018-02-13T11:16:02.117Z,18.5
2018-02-13T11:17:04.500Z,18.6
2018-02-13T11:18:06.875Z,18.7
2018-02-13T11:19:09.270Z,18.7
2018-02-13T11:20:11.661Z,18.8
2018-02-13T11:21:14.097Z,18.8
2018-02-13T11:22:17.050Z,18.8
2018-02-13T11:23:19.444Z,18.8
2018-02-13T11:24:21.824Z,18.8
2018-02-13T11:25:24.220Z,18.9
2018-02-13T11:26:26.599Z,18.8
2018-02-13T11:27:28.986Z,18.9
2018-02-13T11:28:31.376Z,18.8
2018-02-13T11:29:33.760Z,18.8
2018-02-13T11:30:36.135Z,18.8
2018-02-13T11:31:38.525Z,18.7
2018-02-13T11:32:40.906Z,18.8
2018-02-13T11:33:43.570Z,18.9
2018-02-13T11:34:45.955Z,18.9
2018-02-13T11:35:48.340Z,18.9
2018-02-13T11:36:50.718Z,18.9
2018-02-13T11:37:53.111Z,18.9
2018-02-13T11:38:55.768Z,18.9
2018-02-13T11:39:58.426Z,18.9
2018-02-13T11:41:00.804Z,18.9
2018-02-13T11:42:03.192Z,18.8
2018-02-13T11:43:05.586Z,18.8
2018-02-13T11:44:07.977Z,18.8
2018-02-13T11:45:10.342Z,18.8
2018-02-13T11:46:12.735Z,18.7
2018-02-13T11:47:15.118Z,18.6
2018-02-13T11:48:17.502Z,18.6
2018-02-13T11:49:19.890Z,18.5
2018-02-13T11:50:22.272Z,18.4
2018-02-13T11:51:24.927Z,18.2
2018-02-13T11:52:27.319Z,18.1
2018-02-13T11:53:29.696Z,18.1
2018-02-13T11:54:32.078Z,18.1
2018-02-13T11:55:34.739Z,18
2018-02-13T11:56:37.129Z,17.9
2018-02-13T11:57:39.510Z,17.9
2018-02-13T11:58:41.889Z,17.9
2018-02-13T11:59:44.280Z,17.9
2018-02-13T12:00:46.660Z,17.9
2018-02-13T12:01:49.041Z,17.9
2018-02-13T12:02:51.734Z,17.9
2018-02-13T12:03:54.105Z,17.9
2018-02-13T12:04:56.491Z,17.9
2018-02-13T12:05:58.863Z,18
2018-02-13T12:07:01.253Z,18
2018-02-13T12:08:03.636Z,18.1
2018-02-13T12:09:06.022Z,18.1
2018-02-13T12:10:08.403Z,18.2
2018-02-13T12:11:10.788Z,18.2
2018-02-13T12:12:13.163Z,18.2
2018-02-13T12:13:15.557Z,18.2
2018-02-13T12:14:17.940Z,18.1
2018-02-13T12:15:20.322Z,18.1
2018-02-13T12:16:22.975Z,18.2
2018-02-13T12:17:25.643Z,18.2
2018-02-13T12:18:28.032Z,18.3
2018-02-13T12:19:30.413Z,18.4
2018-02-13T12:20:32.786Z,18.4
2018-02-13T12:21:35.173Z,18.5
2018-02-13T12:22:37.557Z,18.6
2018-02-13T12:23:39.943Z,18.6
2018-02-13T12:24:42.329Z,18.7
2018-02-13T12:25:44.712Z,18.8
2018-02-13T12:26:47.097Z,18.8
2018-02-13T12:27:49.495Z,18.9
2018-02-13T12:28:51.879Z,19
2018-02-13T12:29:54.259Z,19.1
2018-02-13T12:30:56.643Z,19.2
2018-02-13T12:31:59.318Z,19.3
2018-02-13T12:33:01.702Z,19.4
2018-02-13T12:34:04.091Z,19.4
2018-02-13T12:35:06.470Z,19.4
2018-02-13T12:36:08.846Z,19.4
2018-02-13T12:37:11.242Z,19.3
2018-02-13T12:38:13.635Z,19.3
2018-02-13T12:39:16.015Z,19.4
2018-02-13T12:40:18.395Z,19.4
2018-02-13T12:41:20.781Z,19.4
2018-02-13T12:42:23.164Z,19.4
2018-02-13T12:43:25.556Z,19.4
2018-02-13T12:44:27.930Z,19.3
2018-02-13T12:45:30.316Z,19.3
2018-02-13T12:46:32.701Z,19.2
2018-02-13T12:47:35.088Z,19.2
2018-02-13T12:48:37.476Z,19.1
2018-02-13T12:49:39.856Z,19.1
2018-02-13T12:50:42.235Z,19.1
2018-02-13T12:51:44.627Z,19.1
2018-02-13T12:52:47.014Z,19.1
2018-02-13T12:53:49.386Z,19.1
2018-02-13T12:54:51.779Z,19.1
2018-02-13T12:55:54.159Z,19.1
2018-02-13T12:56:56.546Z,19.2
2018-02-13T12:57:58.931Z,19.2
2018-02-13T12:59:01.329Z,19.2
2018-02-13T13:00:03.770Z,19.2
2018-02-13T13:01:06.089Z,19.2
2018-02-13T13:02:08.481Z,19.2
2018-02-13T13:03:10.861Z,19.2
2018-02-13T13:04:13.246Z,19.1
2018-02-13T13:05:15.623Z,18.9
2018-02-13T13:06:17.999Z,18.8
2018-02-13T13:07:20.386Z,18.7
2018-02-13T13:08:22.784Z,18.6
2018-02-13T13:09:25.162Z,18.6
2018-02-13T13:10:27.544Z,18.5
2018-02-13T13:11:30.214Z,18.4
2018-02-13T13:12:32.880Z,18.4
2018-02-13T13:13:35.264Z,18.3
2018-02-13T13:14:37.934Z,18.4
2018-02-13T13:15:40.318Z,18.4
2018-02-13T13:16:42.982Z,18.4
2018-02-13T13:17:45.367Z,18.3
2018-02-13T13:18:47.777Z,18.2
2018-02-13T13:19:50.145Z,18.2
2018-02-13T13:20:52.537Z,18.1
2018-02-13T13:21:54.920Z,18
2018-02-13T13:22:57.309Z,18
2018-02-13T13:23:59.694Z,17.9
2018-02-13T13:25:02.086Z,17.9
2018-02-13T13:26:04.466Z,17.9
2018-02-13T13:27:06.856Z,17.8
2018-02-13T13:28:09.240Z,17.7
2018-02-13T13:29:11.620Z,17.7
2018-02-13T13:30:14.003Z,17.7
2018-02-13T13:31:16.668Z,17.6
2018-02-13T13:32:19.082Z,17.7
2018-02-13T13:33:21.425Z,17.7
2018-02-13T13:34:23.813Z,17.7
2018-02-13T13:35:26.189Z,17.6
2018-02-13T13:36:28.578Z,17.6
2018-02-13T13:37:30.969Z,17.6
2018-02-13T13:38:33.363Z,17.6
2018-02-13T13:39:35.753Z,17.6
2018-02-13T13:40:38.156Z,17.6
2018-02-13T13:41:40.516Z,17.6
2018-02-13T13:42:43.184Z,17.5
2018-02-13T13:43:45.555Z,17.5
2018-02-13T13:44:47.941Z,17.5
2018-02-13T13:45:50.334Z,17.5
2018-02-13T13:46:52.715Z,17.4
2018-02-13T13:47:55.098Z,17.3
2018-02-13T13:48:57.486Z,17.2
2018-02-13T13:49:59.857Z,17.2
2018-02-13T13:51:02.250Z,17.1
2018-02-13T13:52:04.634Z,17
2018-02-13T13:53:07.011Z,16.9
2018-02-13T13:54:09.390Z,16.9
2018-02-13T13:55:11.775Z,16.9
2018-02-13T13:56:14.152Z,16.8
2018-02-13T13:57:16.818Z,16.8
2018-02-13T13:58:19.476Z,16.7
2018-02-13T13:59:21.866Z,16.7
2018-02-13T14:00:24.236Z,16.7
2018-02-13T14:01:26.618Z,16.6
2018-02-13T14:02:28.998Z,16.6
2018-02-13T14:03:31.381Z,16.5
2018-02-13T14:04:33.767Z,16.5
2018-02-13T14:06:08.284Z,16.4
2018-02-13T14:07:10.719Z,16.3
2018-02-13T14:08:13.166Z,16.2
2018-02-13T14:09:16.171Z,16.2
2018-02-13T14:10:18.637Z,16.2
2018-02-13T14:11:21.032Z,16.2